Time;durP1;ratioP1;P1;durP2;ratioP2;P2;SDS_P1;SDS_P2;PMS_P1;PMS_P2;Temp;Humidity;BMP_temperature;BMP_pressure;BME280_temperature;BME280_humidity;BME280_pressure;Samples;Min_cycle;Max_cycle;Signal;HPM_P1;HPM_P2
2022/08/17 00:01:00;;;;;;;28.98;21.92;;;21.20;99.90;;;;;;3058013;19;20022;-71
2022/08/17 00:02:08;;;;;;;32.63;22.23;;;21.30;99.90;;;;;;3058314;19;20077;-71
2022/08/17 00:03:13;;;;;;;32.83;21.98;;;21.20;99.90;;;;;;3057901;19;20011;-71
2022/08/17 00:04:18;;;;;;;28.65;20.65;;;21.10;99.90;;;;;;3058349;19;20006;-71
2022/08/17 00:05:19;;;;;;;27.85;21.05;;;20.90;99.90;;;;;;3057822;19;20034;-71
2022/08/17 00:06:26;;;;;;;32.00;21.92;;;21.00;99.90;;;;;;3058346;19;20027;-71
2022/08/17 00:07:27;;;;;;;29.60;19.92;;;21.00;99.90;;;;;;3058131;19;20014;-71
2022/08/17 00:08:34;;;;;;;28.42;20.98;;;20.90;99.90;;;;;;3058091;19;20017;-71
2022/08/17 00:09:36;;;;;;;28.98;20.98;;;21.00;99.90;;;;;;3058063;19;20007;-71
2022/08/17 00:10:40;;;;;;;28.30;21.25;;;21.00;99.90;;;;;;3057835;19;20428;-71
2022/08/17 00:11:43;;;;;;;29.13;21.40;;;20.90;99.90;;;;;;3057879;19;20006;-71
2022/08/17 00:12:47;;;;;;;30.83;21.48;;;20.80;99.90;;;;;;3057757;19;20059;-71
2022/08/17 00:13:53;;;;;;;31.05;21.23;;;20.90;99.90;;;;;;3057264;19;20022;-71
2022/08/17 00:14:56;;;;;;;31.67;20.38;;;20.90;99.90;;;;;;3058015;19;20002;-71
2022/08/17 00:16:04;;;;;;;31.02;21.63;;;20.80;99.90;;;;;;3057962;19;20016;-71
2022/08/17 00:17:06;;;;;;;27.48;19.88;;;21.10;99.90;;;;;;3057766;19;20010;-71
2022/08/17 00:18:10;;;;;;;31.95;21.45;;;20.80;99.90;;;;;;3057427;19;20023;-71
2022/08/17 00:19:14;;;;;;;30.92;21.42;;;20.60;99.90;;;;;;3057623;19;20010;-71
2022/08/17 00:20:20;;;;;;;30.95;21.00;;;21.00;99.90;;;;;;3057797;19;20011;-71
2022/08/17 00:21:22;;;;;;;32.20;23.45;;;20.80;99.90;;;;;;3057929;19;20019;-71
2022/08/17 00:22:26;;;;;;;28.70;21.38;;;20.60;99.90;;;;;;3058832;19;20010;-71
2022/08/17 00:23:28;;;;;;;32.88;21.88;;;20.70;99.90;;;;;;3061115;19;20018;-71
2022/08/17 00:24:31;;;;;;;30.15;22.73;;;20.60;99.90;;;;;;3060919;19;20006;-71
2022/08/17 00:25:33;;;;;;;33.00;21.75;;;20.70;99.90;;;;;;3060973;19;20353;-71
2022/08/17 00:26:37;;;;;;;31.38;22.30;;;20.60;99.90;;;;;;3060876;19;20016;-71
2022/08/17 00:27:38;;;;;;;30.83;22.40;;;20.70;99.90;;;;;;3061019;19;20689;-71
2022/08/17 00:28:42;;;;;;;30.83;22.30;;;20.70;99.90;;;;;;3060879;19;20022;-71
2022/08/17 00:29:44;;;;;;;30.85;22.05;;;20.70;99.90;;;;;;3060818;19;20892;-71
2022/08/17 00:30:49;;;;;;;;;;;20.50;99.90;;;;;;3061580;19;20006;-71
2022/08/17 00:31:56;;;;;;;33.03;21.88;;;20.60;99.90;;;;;;3060714;19;19914;-71
2022/08/17 00:32:57;;;;;;;36.65;24.05;;;20.50;99.90;;;;;;3061148;19;20027;-71
2022/08/17 00:34:01;;;;;;;37.08;24.35;;;20.80;99.90;;;;;;3060603;19;20456;-71
2022/08/17 00:35:04;;;;;;;33.63;23.35;;;20.50;99.90;;;;;;3060725;19;20025;-71
2022/08/17 00:36:09;;;;;;;33.05;23.95;;;20.60;99.90;;;;;;3060673;19;20011;-71
2022/08/17 00:37:10;;;;;;;34.75;23.58;;;20.50;99.90;;;;;;3060959;19;20006;-71
2022/08/17 00:38:15;;;;;;;32.72;23.30;;;20.60;99.90;;;;;;3060757;19;20086;-71
2022/08/17 00:39:16;;;;;;;34.60;23.45;;;20.40;99.90;;;;;;3061052;19;20010;-71
2022/08/17 00:40:21;;;;;;;31.27;22.35;;;20.60;99.90;;;;;;3060547;19;20014;-71
2022/08/17 00:41:25;;;;;;;32.25;23.65;;;20.60;99.90;;;;;;3060859;19;20487;-71
2022/08/17 00:42:29;;;;;;;31.85;22.67;;;20.40;99.90;;;;;;3060713;19;20011;-71
2022/08/17 00:43:33;;;;;;;30.73;22.33;;;20.40;99.90;;;;;;3060706;19;20014;-71
2022/08/17 00:44:37;;;;;;;34.30;22.00;;;20.60;99.90;;;;;;3060562;19;20030;-71
2022/08/17 00:45:41;;;;;;;31.38;22.70;;;20.40;99.90;;;;;;3060856;19;20039;-71
2022/08/17 00:46:46;;;;;;;31.98;23.10;;;20.40;99.90;;;;;;3060664;19;20484;-71
2022/08/17 00:47:50;;;;;;;33.13;23.70;;;20.50;99.90;;;;;;3060806;19;20441;-71
2022/08/17 00:48:54;;;;;;;32.60;23.70;;;20.30;99.90;;;;;;3060155;19;20019;-71
2022/08/17 00:49:56;;;;;;;33.35;23.17;;;20.30;99.90;;;;;;3060682;19;20029;-71
2022/08/17 00:51:07;;;;;;;34.63;23.95;;;20.30;99.90;;;;;;3060504;19;20006;-71
2022/08/17 00:52:15;;;;;;;30.98;22.55;;;20.40;99.90;;;;;;3060525;19;20472;-71
2022/08/17 00:53:19;;;;;;;31.48;22.48;;;20.30;99.90;;;;;;3060412;19;20039;-71
2022/08/17 00:54:24;;;;;;;30.83;22.67;;;20.30;99.90;;;;;;3060682;19;20010;-71
2022/08/17 00:55:29;;;;;;;32.15;23.17;;;20.40;99.90;;;;;;3060716;19;20508;-71
2022/08/17 00:56:33;;;;;;;31.73;23.23;;;20.40;99.90;;;;;;3060636;19;20003;-71
2022/08/17 00:57:40;;;;;;;34.55;22.77;;;20.30;99.90;;;;;;3060668;19;20006;-71
2022/08/17 00:58:42;;;;;;;35.58;23.65;;;20.20;99.90;;;;;;3059534;19;20002;-71
2022/08/17 00:59:57;;;;;;;30.08;22.02;;;20.40;99.90;;;;;;3060432;19;20014;-71
2022/08/17 01:01:00;;;;;;;30.63;22.60;;;20.30;99.90;;;;;;3060429;19;20035;-71
2022/08/17 01:02:05;;;;;;;30.45;22.42;;;20.20;99.90;;;;;;3060476;19;20483;-71
2022/08/17 01:03:12;;;;;;;30.02;22.77;;;20.20;99.90;;;;;;3060455;19;20515;-71
2022/08/17 01:04:18;;;;;;;31.80;22.13;;;20.20;99.90;;;;;;3060398;19;20006;-71
2022/08/17 01:05:24;;;;;;;31.95;22.55;;;20.30;99.90;;;;;;3060281;19;20425;-71
2022/08/17 01:06:28;;;;;;;33.63;22.17;;;20.20;99.90;;;;;;3060611;19;20026;-71
2022/08/17 01:07:29;;;;;;;33.47;23.42;;;20.10;99.90;;;;;;3060374;19;20014;-71
2022/08/17 01:08:34;;;;;;;31.45;22.70;;;20.40;99.90;;;;;;3060491;19;20467;-71
2022/08/17 01:09:36;;;;;;;34.95;24.40;;;20.20;99.90;;;;;;3060196;19;20031;-71
2022/08/17 01:10:43;;;;;;;37.00;24.70;;;20.40;99.90;;;;;;3060197;19;20010;-71
2022/08/17 01:11:50;;;;;;;32.97;22.40;;;20.30;99.90;;;;;;3060358;19;20031;-72
2022/08/17 01:12:55;;;;;;;34.33;24.15;;;20.30;99.90;;;;;;3059825;19;20010;-71
2022/08/17 01:13:56;;;;;;;35.38;25.40;;;20.20;99.90;;;;;;3060029;19;20007;-71
2022/08/17 01:15:01;;;;;;;36.85;24.25;;;20.10;99.90;;;;;;3060173;19;20029;-71
2022/08/17 01:16:06;;;;;;;37.63;25.45;;;20.00;99.90;;;;;;3060168;19;20014;-71
2022/08/17 01:17:11;;;;;;;36.53;25.73;;;20.00;99.90;;;;;;3060341;19;20002;-71
2022/08/17 01:18:15;;;;;;;43.80;25.85;;;20.20;99.90;;;;;;3059873;19;20014;-71
2022/08/17 01:19:22;;;;;;;32.42;24.80;;;20.20;99.90;;;;;;3059905;19;20472;-71
2022/08/17 01:20:24;;;;;;;40.90;25.48;;;20.10;99.90;;;;;;3059991;19;20348;-71
2022/08/17 01:21:34;;;;;;;40.85;26.67;;;20.30;99.90;;;;;;3060293;19;20002;-72
2022/08/17 01:22:38;;;;;;;37.50;25.20;;;20.30;99.90;;;;;;3060250;19;20013;-71
2022/08/17 01:23:43;;;;;;;32.97;24.40;;;20.30;99.90;;;;;;3059964;19;20483;-71
2022/08/17 01:24:49;;;;;;;36.35;25.73;;;20.20;99.90;;;;;;3060347;19;20007;-71
2022/08/17 01:25:56;;;;;;;36.33;26.15;;;20.00;99.90;;;;;;3060257;19;20073;-71
2022/08/17 01:26:57;;;;;;;34.95;24.55;;;20.10;99.90;;;;;;3060063;19;20002;-71
2022/08/17 01:28:02;;;;;;;34.25;24.15;;;20.00;99.90;;;;;;3059959;19;20043;-71
2022/08/17 01:29:05;;;;;;;33.20;24.65;;;20.20;99.90;;;;;;3060115;19;20005;-71
2022/08/17 01:30:12;;;;;;;33.45;23.88;;;20.30;99.90;;;;;;3059969;19;20017;-71
2022/08/17 01:31:14;;;;;;;34.63;25.65;;;20.30;99.90;;;;;;3060232;19;20025;-71
2022/08/17 01:32:18;;;;;;;;;;;20.10;99.90;;;;;;3060666;19;20011;-71
2022/08/17 01:33:19;;;;;;;35.13;24.63;;;20.20;99.90;;;;;;3059952;19;20352;-71
2022/08/17 01:34:24;;;;;;;34.70;24.42;;;20.10;99.90;;;;;;3057782;19;20023;-71
2022/08/17 01:35:25;;;;;;;35.40;24.05;;;20.00;99.90;;;;;;3059960;19;20368;-72
2022/08/17 01:36:29;;;;;;;33.58;24.83;;;20.00;99.90;;;;;;3059871;19;20015;-71
2022/08/17 01:37:33;;;;;;;36.47;25.33;;;20.20;99.90;;;;;;3059917;19;20006;-71
2022/08/17 01:38:41;;;;;;;35.22;25.02;;;20.20;99.90;;;;;;3061038;19;20014;-71
2022/08/17 01:39:46;;;;;;;37.97;25.38;;;20.20;99.90;;;;;;3059931;19;20692;-71
2022/08/17 01:40:54;;;;;;;36.50;25.20;;;20.10;99.90;;;;;;3059609;19;20010;-71
2022/08/17 01:42:06;;;;;;;33.67;25.92;;;20.40;99.90;;;;;;3060134;19;20007;-71
2022/08/17 01:43:13;;;;;;;36.22;25.58;;;20.10;99.90;;;;;;3059009;19;20015;-71
2022/08/17 01:44:15;;;;;;;34.63;25.25;;;20.20;99.90;;;;;;3059220;19;20345;-71
2022/08/17 01:45:25;;;;;;;33.92;24.73;;;20.10;99.90;;;;;;3059820;19;20011;-71
2022/08/17 01:46:30;;;;;;;33.25;24.20;;;20.30;99.90;;;;;;3059811;19;20015;-71
2022/08/17 01:47:36;;;;;;;36.65;25.48;;;20.10;99.90;;;;;;3059897;19;20016;-71
2022/08/17 01:48:37;;;;;;;38.05;25.23;;;20.10;99.90;;;;;;3059269;19;20476;-71
2022/08/17 01:49:41;;;;;;;;;;;20.10;99.90;;;;;;3059592;19;20017;-71
2022/08/17 01:50:44;;;;;;;38.25;25.63;;;20.00;99.90;;;;;;3058958;19;19914;-71
2022/08/17 01:51:48;;;;;;;35.45;24.85;;;19.90;99.90;;;;;;3059761;19;20035;-71
2022/08/17 01:52:52;;;;;;;36.30;24.40;;;19.70;99.90;;;;;;3059533;19;20009;-71
2022/08/17 01:54:01;;;;;;;33.97;24.98;;;20.00;99.90;;;;;;3059645;19;20019;-71
2022/08/17 01:55:05;;;;;;;34.10;23.88;;;19.90;99.90;;;;;;3059778;19;20010;-71
2022/08/17 01:56:13;;;;;;;34.13;24.83;;;20.00;99.90;;;;;;3059920;19;20018;-71
2022/08/17 01:57:14;;;;;;;37.60;24.83;;;20.10;99.90;;;;;;3059538;19;20015;-71
2022/08/17 01:58:18;;;;;;;37.15;24.35;;;20.00;99.90;;;;;;3059681;19;20486;-71
2022/08/17 01:59:20;;;;;;;35.10;24.63;;;19.90;99.90;;;;;;3059769;19;20021;-71
2022/08/17 02:00:24;;;;;;;37.75;26.50;;;20.00;99.90;;;;;;3059644;19;20018;-71
2022/08/17 02:01:29;;;;;;;38.90;25.35;;;19.90;99.90;;;;;;3059630;19;20018;-72
2022/08/17 02:02:33;;;;;;;37.10;24.73;;;20.00;99.90;;;;;;3059774;19;20006;-72
2022/08/17 02:03:36;;;;;;;32.70;24.17;;;20.00;99.90;;;;;;3059518;19;20484;-71
2022/08/17 02:04:40;;;;;;;36.90;24.23;;;19.90;99.90;;;;;;3059877;19;20010;-71
2022/08/17 02:05:42;;;;;;;33.38;24.77;;;19.90;99.90;;;;;;3059416;19;20480;-71
2022/08/17 02:06:46;;;;;;;35.20;24.77;;;20.10;99.90;;;;;;3059851;19;20448;-71
2022/08/17 02:07:47;;;;;;;37.13;24.17;;;19.90;99.90;;;;;;3059452;19;20018;-71
2022/08/17 02:08:51;;;;;;;38.35;24.92;;;19.90;99.90;;;;;;3059802;19;20010;-71
2022/08/17 02:09:55;;;;;;;40.65;26.10;;;19.80;99.90;;;;;;3059510;19;20014;-71
2022/08/17 02:10:59;;;;;;;37.58;26.13;;;20.00;99.90;;;;;;3059323;19;20031;-70
2022/08/17 02:12:02;;;;;;;38.22;25.33;;;19.80;99.90;;;;;;3059270;19;20018;-71
2022/08/17 02:13:06;;;;;;;34.55;25.23;;;19.90;99.90;;;;;;3059109;19;20013;-71
2022/08/17 02:14:09;;;;;;;35.15;25.52;;;19.60;99.90;;;;;;3059168;19;20007;-71
2022/08/17 02:15:14;;;;;;;40.60;25.98;;;19.80;99.90;;;;;;3059370;19;20014;-71
2022/08/17 02:16:16;;;;;;;33.05;24.45;;;19.80;99.90;;;;;;3059275;19;20359;-71
2022/08/17 02:17:20;;;;;;;38.60;26.58;;;19.70;99.90;;;;;;3058846;19;20025;-71
2022/08/17 02:18:22;;;;;;;38.15;25.42;;;19.90;99.90;;;;;;3058349;19;20011;-71
2022/08/17 02:19:26;;;;;;;;;;;19.80;99.90;;;;;;3058035;19;20006;-71
2022/08/17 02:20:30;;;;;;;35.35;25.85;;;19.60;99.90;;;;;;3059279;19;19982;-72
2022/08/17 02:21:33;;;;;;;35.38;25.38;;;19.70;99.90;;;;;;3059317;19;20010;-71
2022/08/17 02:22:37;;;;;;;35.72;24.95;;;19.70;99.90;;;;;;3059105;19;20010;-71
2022/08/17 02:23:46;;;;;;;36.05;25.35;;;19.70;99.90;;;;;;3059528;19;20464;-71
2022/08/17 02:24:47;;;;;;;33.55;24.48;;;19.60;99.90;;;;;;3059074;19;20010;-71
2022/08/17 02:25:55;;;;;;;34.40;24.58;;;19.60;99.90;;;;;;3059309;19;20472;-71
2022/08/17 02:26:56;;;;;;;34.67;25.05;;;19.80;99.90;;;;;;3059142;19;20021;-71
2022/08/17 02:28:01;;;;;;;37.92;25.75;;;19.80;99.90;;;;;;3059535;19;20006;-71
2022/08/17 02:29:03;;;;;;;36.85;25.65;;;19.70;99.90;;;;;;3059160;19;20010;-71
2022/08/17 02:30:07;;;;;;;;;;;19.70;99.90;;;;;;3060215;19;20010;-71
2022/08/17 02:31:10;;;;;;;36.22;25.55;;;19.80;99.90;;;;;;3059123;19;20369;-71
2022/08/17 02:32:22;;;;;;;38.55;26.38;;;19.60;99.90;;;;;;3059278;19;20008;-71
2022/08/17 02:33:23;;;;;;;34.13;25.15;;;18.30;99.90;;;;;;3059263;19;20014;-71
2022/08/17 02:34:27;;;;;;;36.50;24.83;;;19.50;99.90;;;;;;3059153;19;20011;-71
2022/08/17 02:35:31;;;;;;;32.88;23.95;;;19.70;99.90;;;;;;3059349;19;20070;-71
2022/08/17 02:36:36;;;;;;;32.92;24.17;;;19.50;99.90;;;;;;3059001;19;20032;-71
2022/08/17 02:37:40;;;;;;;35.05;24.27;;;19.60;99.90;;;;;;3058959;19;20025;-71
2022/08/17 02:38:44;;;;;;;37.53;25.48;;;19.70;99.90;;;;;;3058601;19;20007;-71
2022/08/17 02:39:46;;;;;;;34.45;23.65;;;19.60;99.90;;;;;;3059012;19;20420;-71
2022/08/17 02:40:50;;;;;;;;;;;19.60;99.90;;;;;;3059482;19;20014;-71
2022/08/17 02:42:02;;;;;;;33.25;23.92;;;19.60;99.90;;;;;;3058014;19;20329;-71
2022/08/17 02:43:06;;;;;;;33.22;23.95;;;19.50;99.90;;;;;;3058293;19;20031;-71
2022/08/17 02:44:07;;;;;;;32.08;23.95;;;19.50;99.90;;;;;;3058874;19;20017;-71
2022/08/17 02:45:15;;;;;;;31.95;23.00;;;19.60;99.90;;;;;;3057994;19;20006;-71
2022/08/17 02:46:18;;;;;;;33.53;23.85;;;19.50;99.90;;;;;;3059164;19;20002;-71
2022/08/17 02:47:22;;;;;;;33.75;24.70;;;19.30;99.90;;;;;;3058899;19;20013;-71
2022/08/17 02:48:23;;;;;;;31.27;22.95;;;19.50;99.90;;;;;;3059208;19;20002;-71
2022/08/17 02:49:27;;;;;;;34.78;23.55;;;19.50;99.90;;;;;;3058649;19;20031;-71
2022/08/17 02:50:28;;;;;;;30.17;23.17;;;19.40;99.90;;;;;;3059236;19;20031;-71
2022/08/17 02:51:34;;;;;;;32.80;22.83;;;19.50;99.90;;;;;;3058891;19;20077;-71
2022/08/17 02:52:36;;;;;;;30.50;22.55;;;19.50;99.90;;;;;;3059058;19;20006;-71
2022/08/17 02:53:40;;;;;;;30.80;22.70;;;19.30;99.90;;;;;;3059160;19;20017;-71
2022/08/17 02:54:42;;;;;;;31.77;23.42;;;19.40;99.90;;;;;;3058781;19;20018;-72
2022/08/17 02:55:46;;;;;;;29.88;22.10;;;19.30;99.90;;;;;;3058686;19;20018;-71
2022/08/17 02:56:47;;;;;;;28.90;21.15;;;19.30;99.90;;;;;;3058998;19;20033;-71
2022/08/17 02:57:54;;;;;;;28.95;21.55;;;19.50;99.90;;;;;;3058958;19;20025;-71
2022/08/17 02:58:55;;;;;;;29.55;21.85;;;19.40;99.90;;;;;;3058609;19;20224;-71
2022/08/17 02:59:59;;;;;;;27.52;21.00;;;19.30;99.90;;;;;;3058645;19;20027;-71
2022/08/17 03:01:03;;;;;;;25.65;20.67;;;19.30;99.90;;;;;;3058830;19;20014;-71
2022/08/17 03:02:09;;;;;;;25.42;20.95;;;19.20;99.90;;;;;;3058607;19;20006;-71
2022/08/17 03:03:12;;;;;;;24.58;20.50;;;19.20;99.90;;;;;;3058886;19;20413;-71
2022/08/17 03:04:16;;;;;;;24.77;20.70;;;19.20;99.90;;;;;;3058574;19;20017;-70
2022/08/17 03:05:21;;;;;;;23.75;19.60;;;19.20;99.90;;;;;;3058862;19;20096;-71
2022/08/17 03:06:24;;;;;;;26.10;20.55;;;19.20;99.90;;;;;;3058654;19;20010;-71
2022/08/17 03:07:26;;;;;;;23.40;19.80;;;19.30;99.90;;;;;;3059000;19;20333;-71
2022/08/17 03:08:30;;;;;;;24.98;20.95;;;19.20;99.90;;;;;;3058769;19;20093;-71
2022/08/17 03:09:32;;;;;;;26.85;21.23;;;19.20;99.90;;;;;;3058912;19;20006;-71
2022/08/17 03:10:35;;;;;;;26.17;21.13;;;19.20;99.90;;;;;;3058714;19;20006;-71
2022/08/17 03:11:37;;;;;;;26.90;20.67;;;19.10;99.90;;;;;;3058871;19;20014;-71
2022/08/17 03:12:44;;;;;;;27.52;21.20;;;19.20;99.90;;;;;;3058510;19;20386;-71
2022/08/17 03:13:48;;;;;;;28.75;20.48;;;19.20;99.90;;;;;;3058348;19;20018;-71
2022/08/17 03:14:53;;;;;;;25.17;20.33;;;19.00;99.90;;;;;;3058647;19;20014;-71
2022/08/17 03:15:55;;;;;;;24.45;19.73;;;18.90;99.90;;;;;;3058712;19;20666;-71
2022/08/17 03:17:00;;;;;;;26.30;20.05;;;19.00;99.90;;;;;;3058793;19;20021;-71
2022/08/17 03:18:02;;;;;;;25.88;20.77;;;19.20;99.90;;;;;;3058532;19;20464;-71
2022/08/17 03:19:06;;;;;;;26.35;21.25;;;19.20;99.90;;;;;;3057857;19;20018;-71
2022/08/17 03:20:08;;;;;;;24.45;20.35;;;19.00;99.90;;;;;;3058732;19;20018;-71
2022/08/17 03:21:12;;;;;;;27.08;20.92;;;19.10;99.90;;;;;;3058334;19;20024;-71
2022/08/17 03:22:14;;;;;;;25.50;20.00;;;19.00;99.90;;;;;;3058701;19;20020;-71
2022/08/17 03:23:17;;;;;;;27.55;20.75;;;18.90;99.90;;;;;;3058517;19;20018;-71
2022/08/17 03:24:19;;;;;;;23.73;19.73;;;19.10;99.90;;;;;;3058554;19;20081;-71
2022/08/17 03:25:26;;;;;;;24.23;18.92;;;18.90;99.90;;;;;;3058605;19;20078;-71
2022/08/17 03:26:28;;;;;;;23.17;18.92;;;19.00;99.90;;;;;;3058499;19;20010;-71
2022/08/17 03:27:31;;;;;;;23.35;19.15;;;18.90;99.90;;;;;;3058405;19;20464;-71
2022/08/17 03:28:33;;;;;;;25.35;19.33;;;18.90;99.90;;;;;;3058443;19;20046;-71
2022/08/17 03:29:40;;;;;;;23.60;19.05;;;18.80;99.90;;;;;;3058392;19;20040;-71
2022/08/17 03:30:41;;;;;;;22.33;18.75;;;18.80;99.90;;;;;;3058585;19;20030;-71
2022/08/17 03:31:45;;;;;;;25.45;20.10;;;18.70;99.90;;;;;;3057651;19;20010;-71
2022/08/17 03:32:48;;;;;;;22.38;18.42;;;18.90;99.90;;;;;;3057640;19;20035;-71
2022/08/17 03:33:52;;;;;;;25.27;19.73;;;19.00;99.90;;;;;;3058520;19;20081;-71
2022/08/17 03:34:57;;;;;;;26.98;20.48;;;18.90;99.90;;;;;;3058531;19;20017;-71
2022/08/17 03:36:01;;;;;;;22.35;19.13;;;18.80;99.90;;;;;;3057662;19;20018;-71
2022/08/17 03:37:05;;;;;;;24.85;18.52;;;18.90;99.90;;;;;;3057759;19;20026;-71
2022/08/17 03:38:08;;;;;;;24.70;19.80;;;18.60;99.90;;;;;;3059680;19;20006;-71
2022/08/17 03:39:12;;;;;;;25.40;20.02;;;18.80;99.90;;;;;;3058238;19;20346;-71
2022/08/17 03:40:14;;;;;;;24.13;19.00;;;18.90;99.90;;;;;;3058434;19;20003;-71
2022/08/17 03:41:18;;;;;;;24.40;19.50;;;18.70;99.90;;;;;;3058323;19;20011;-71
2022/08/17 03:42:24;;;;;;;23.35;19.40;;;18.80;99.90;;;;;;3058369;19;20352;-71
2022/08/17 03:43:29;;;;;;;25.25;19.63;;;18.80;99.90;;;;;;3058182;19;20460;-71
2022/08/17 03:44:30;;;;;;;25.52;19.52;;;18.80;99.90;;;;;;3058422;19;20010;-71
2022/08/17 03:57:19;;;;;;;30.83;22.10;;;18.70;99.90;;;;;;3058789;19;20023;-71
2022/08/17 03:58:20;;;;;;;28.60;21.48;;;18.50;99.90;;;;;;3061106;19;20023;-71
2022/08/17 03:59:25;;;;;;;30.77;22.17;;;18.60;99.90;;;;;;3059908;19;20397;-71
2022/08/17 04:00:26;;;;;;;29.00;22.08;;;18.40;99.90;;;;;;3060472;19;20011;-71
2022/08/17 04:01:33;;;;;;;27.13;21.92;;;18.60;99.90;;;;;;3061551;19;20002;-71
2022/08/17 04:02:35;;;;;;;26.42;20.30;;;18.70;99.90;;;;;;3061158;19;20480;-71
2022/08/17 04:03:38;;;;;;;;;;;18.60;99.90;;;;;;3061933;19;20018;-71
2022/08/17 04:04:40;;;;;;;26.98;21.55;;;18.70;99.90;;;;;;3061273;19;19922;-72
2022/08/17 04:05:44;;;;;;;28.25;21.65;;;18.60;99.90;;;;;;3061467;19;20010;-71
2022/08/17 04:06:46;;;;;;;26.00;20.80;;;18.60;99.90;;;;;;3061043;19;20035;-70
2022/08/17 04:07:50;;;;;;;26.77;20.60;;;18.60;99.90;;;;;;3061253;19;20006;-70
2022/08/17 04:08:51;;;;;;;27.05;20.48;;;18.60;99.90;;;;;;3061204;19;20479;-70
2022/08/17 04:09:56;;;;;;;27.17;21.13;;;18.70;99.90;;;;;;3061400;19;20019;-71
2022/08/17 04:10:59;;;;;;;26.70;20.77;;;18.70;99.90;;;;;;3061192;19;20021;-71
2022/08/17 04:12:03;;;;;;;31.83;23.33;;;18.80;99.90;;;;;;3061225;19;20480;-71
2022/08/17 04:13:05;;;;;;;28.27;21.17;;;18.60;99.90;;;;;;3060228;19;20026;-70
2022/08/17 04:14:09;;;;;;;;;;;18.50;99.90;;;;;;3061920;19;20006;-71
2022/08/17 04:15:11;;;;;;;29.05;22.02;;;18.70;99.90;;;;;;3061087;19;20254;-71
2022/08/17 04:16:16;;;;;;;31.08;22.55;;;18.60;99.90;;;;;;3061057;19;20015;-71
2022/08/17 04:17:22;;;;;;;30.27;22.88;;;18.70;99.90;;;;;;3061209;19;20025;-71
2022/08/17 04:18:25;;;;;;;29.10;21.80;;;18.60;99.90;;;;;;3061334;19;20080;-71
2022/08/17 04:19:27;;;;;;;30.38;22.33;;;18.80;99.90;;;;;;3060131;19;20017;-71
2022/08/17 04:20:31;;;;;;;30.38;22.77;;;18.70;99.90;;;;;;3061130;19;20006;-71
2022/08/17 04:21:33;;;;;;;29.92;22.38;;;18.90;99.90;;;;;;3060989;19;20015;-71
2022/08/17 04:22:37;;;;;;;30.95;23.20;;;18.70;99.90;;;;;;3061183;19;20375;-71
2022/08/17 04:23:38;;;;;;;30.25;22.92;;;18.90;99.90;;;;;;3060859;19;20070;-71
2022/08/17 04:24:45;;;;;;;29.10;21.95;;;18.80;99.90;;;;;;3061025;19;20480;-71
2022/08/17 04:25:49;;;;;;;27.42;21.75;;;18.80;99.90;;;;;;3060776;19;20374;-71
2022/08/17 04:26:53;;;;;;;30.15;23.00;;;18.80;99.90;;;;;;3061209;19;20005;-71
2022/08/17 04:27:55;;;;;;;31.38;23.02;;;18.90;99.90;;;;;;3060979;19;20019;-71
2022/08/17 04:29:01;;;;;;;32.63;22.92;;;18.90;99.90;;;;;;3060961;19;20010;-70
2022/08/17 04:30:05;;;;;;;28.67;21.20;;;18.90;99.90;;;;;;3060930;19;20002;-71
2022/08/17 04:31:09;;;;;;;34.67;22.52;;;18.80;99.90;;;;;;3060839;19;20021;-71
2022/08/17 04:32:10;;;;;;;28.73;21.35;;;18.80;99.90;;;;;;3060789;19;20002;-71
2022/08/17 04:33:19;;;;;;;26.52;21.13;;;18.90;99.90;;;;;;3061099;19;20078;-71
2022/08/17 04:34:20;;;;;;;27.48;20.65;;;18.90;99.90;;;;;;3061094;19;20003;-71
2022/08/17 04:35:30;;;;;;;28.60;21.25;;;18.90;99.90;;;;;;3060612;19;20006;-71
2022/08/17 04:36:34;;;;;;;29.83;20.20;;;18.90;99.90;;;;;;3061065;19;20555;-71
2022/08/17 04:37:35;;;;;;;28.40;21.65;;;18.80;99.90;;;;;;3060895;19;20513;-71
2022/08/17 04:38:42;;;;;;;28.88;20.88;;;18.90;99.90;;;;;;3060887;19;20365;-71
2022/08/17 04:42:05;;;;;;;26.35;20.17;;;18.90;99.90;;;;;;3060131;19;20119;-71
2022/08/17 04:42:31;;;;;;;29.75;22.23;;;18.80;99.90;;;;;;3060643;19;20014;-70
2022/08/17 04:43:33;;;;;;;28.83;21.85;;;18.70;99.90;;;;;;3060695;19;20429;-71
2022/08/17 04:44:37;;;;;;;28.90;21.42;;;18.70;99.90;;;;;;3060847;19;20002;-71
2022/08/17 04:45:40;;;;;;;27.88;21.30;;;18.90;99.90;;;;;;3060854;19;20006;-71
2022/08/17 04:46:44;;;;;;;28.35;22.23;;;19.00;99.90;;;;;;3060888;19;20007;-71
2022/08/17 04:47:48;;;;;;;27.38;20.77;;;18.80;99.90;;;;;;3060512;19;20014;-71
2022/08/17 04:48:58;;;;;;;28.58;21.55;;;18.70;99.90;;;;;;3059380;19;20019;-71
2022/08/17 04:50:01;;;;;;;29.90;22.35;;;18.80;99.90;;;;;;3059752;19;20047;-71
2022/08/17 04:51:08;;;;;;;27.52;21.63;;;18.90;99.90;;;;;;3060705;19;20372;-71
2022/08/17 04:52:12;;;;;;;26.48;20.98;;;19.10;99.90;;;;;;3060427;19;20014;-71
2022/08/17 04:53:14;;;;;;;28.95;22.58;;;18.90;99.90;;;;;;3060466;19;20085;-71
2022/08/17 04:54:21;;;;;;;29.05;21.98;;;19.00;99.90;;;;;;3060384;19;20029;-71
2022/08/17 04:55:23;;;;;;;28.60;21.95;;;18.90;99.90;;;;;;3060859;19;20018;-71
2022/08/17 04:56:27;;;;;;;;;;;18.90;99.90;;;;;;3061121;19;20027;-70
2022/08/17 04:57:28;;;;;;;27.42;19.88;;;18.90;99.90;;;;;;3060490;19;19914;-71
2022/08/17 04:58:32;;;;;;;24.45;19.83;;;18.80;99.90;;;;;;3060372;19;20015;-70
2022/08/17 04:59:36;;;;;;;24.63;19.98;;;18.80;99.90;;;;;;3060190;19;20047;-71
2022/08/17 05:00:38;;;;;;;25.67;18.92;;;19.00;99.90;;;;;;3060549;19;20423;-71
2022/08/17 05:01:44;;;;;;;26.42;20.58;;;18.70;99.90;;;;;;3060485;19;20340;-70
2022/08/17 05:02:46;;;;;;;24.38;20.10;;;18.80;99.90;;;;;;3060470;19;20025;-71
2022/08/17 05:03:50;;;;;;;24.15;19.17;;;18.90;99.90;;;;;;3060656;19;20003;-71
2022/08/17 05:04:54;;;;;;;26.48;20.65;;;19.10;99.90;;;;;;3060173;19;20014;-71
2022/08/17 05:05:58;;;;;;;27.23;20.17;;;18.90;99.90;;;;;;3060462;19;20014;-71
2022/08/17 05:07:03;;;;;;;24.88;19.60;;;18.80;99.90;;;;;;3059366;19;20039;-71
2022/08/17 05:08:05;;;;;;;25.38;19.95;;;19.10;99.90;;;;;;3059338;19;20019;-71
2022/08/17 05:09:10;;;;;;;28.02;20.15;;;18.90;99.90;;;;;;3060004;19;20021;-71
2022/08/17 05:10:11;;;;;;;24.25;19.35;;;19.00;99.90;;;;;;3060441;19;20007;-71
2022/08/17 05:11:17;;;;;;;25.77;19.90;;;19.10;99.90;;;;;;3060216;19;20025;-71
2022/08/17 05:12:18;;;;;;;24.50;19.35;;;18.90;99.90;;;;;;3060413;19;20419;-71
2022/08/17 05:13:24;;;;;;;25.30;20.10;;;19.00;99.90;;;;;;3059471;19;20078;-71
2022/08/17 05:14:28;;;;;;;24.48;19.15;;;19.10;99.90;;;;;;3060475;19;20065;-71
2022/08/17 05:15:31;;;;;;;27.85;19.42;;;19.00;99.90;;;;;;3060276;19;20017;-71
2022/08/17 05:16:36;;;;;;;27.05;20.00;;;18.90;99.90;;;;;;3060311;19;20029;-71
2022/08/17 05:17:37;;;;;;;26.17;20.13;;;19.10;99.90;;;;;;3060084;19;20337;-71
2022/08/17 05:18:41;;;;;;;29.33;21.15;;;19.10;99.90;;;;;;3060137;19;20356;-71
2022/08/17 05:19:42;;;;;;;25.83;19.73;;;19.10;99.90;;;;;;3059836;19;20029;-71
2022/08/17 05:20:49;;;;;;;27.80;20.70;;;19.00;99.90;;;;;;3060301;19;20015;-71
2022/08/17 05:21:52;;;;;;;30.75;20.25;;;19.00;99.90;;;;;;3060276;19;20010;-71
2022/08/17 05:22:56;;;;;;;34.13;21.90;;;19.10;99.90;;;;;;3060301;19;20031;-71
2022/08/17 05:24:02;;;;;;;30.90;21.25;;;19.00;99.90;;;;;;3060011;19;20011;-71
2022/08/17 05:25:04;;;;;;;32.85;21.23;;;18.90;99.90;;;;;;3060205;19;20451;-71
2022/08/17 05:26:08;;;;;;;32.72;21.85;;;19.10;99.90;;;;;;3060126;19;20014;-71
2022/08/17 05:27:10;;;;;;;30.88;21.30;;;19.00;99.90;;;;;;3060365;19;20468;-70
2022/08/17 05:28:14;;;;;;;30.92;20.90;;;19.10;99.90;;;;;;3059966;19;20078;-71
2022/08/17 05:29:18;;;;;;;30.92;20.67;;;19.00;99.90;;;;;;3060251;19;20014;-71
2022/08/17 05:30:20;;;;;;;33.47;21.52;;;19.10;99.90;;;;;;3060045;19;20011;-70
2022/08/17 05:31:24;;;;;;;29.40;19.08;;;19.00;99.90;;;;;;3060017;19;20009;-71
2022/08/17 05:32:25;;;;;;;30.52;21.15;;;18.90;99.90;;;;;;3059878;19;20035;-70
2022/08/17 05:33:32;;;;;;;35.22;21.23;;;19.20;99.90;;;;;;3060050;19;20021;-71
2022/08/17 05:34:35;;;;;;;27.73;19.10;;;18.90;99.90;;;;;;3059840;19;20011;-71
2022/08/17 05:35:42;;;;;;;32.65;20.67;;;19.00;99.90;;;;;;3059879;19;20040;-70
2022/08/17 05:36:46;;;;;;;33.42;20.20;;;19.10;99.90;;;;;;3059171;19;20014;-71
2022/08/17 05:37:50;;;;;;;31.73;20.10;;;19.20;99.90;;;;;;3059875;19;20010;-71
2022/08/17 05:38:52;;;;;;;32.63;20.25;;;19.00;99.90;;;;;;3059993;19;20019;-71
2022/08/17 05:39:55;;;;;;;32.40;19.40;;;18.90;99.90;;;;;;3059473;19;20007;-70